createdAt,value
2022-08-25T00:00:58.026Z,77.3
2022-08-25T00:06:33.679Z,77.2
2022-08-25T00:12:08.445Z,77.2
2022-08-25T00:17:43.414Z,77.2
2022-08-25T00:23:22.151Z,77.3
2022-08-25T00:29:02.266Z,77.4
2022-08-25T00:34:37.316Z,77.5
2022-08-25T00:40:16.095Z,77.6
2022-08-25T00:45:51.636Z,77.8
2022-08-25T00:51:27.580Z,77.9
2022-08-25T00:57:03.176Z,78
2022-08-25T01:02:38.663Z,78
2022-08-25T01:08:16.844Z,78.1
2022-08-25T01:13:51.705Z,78
2022-08-25T01:19:26.512Z,77.9
2022-08-25T01:25:02.638Z,78
2022-08-25T01:30:37.821Z,78.1
2022-08-25T01:36:13.477Z,78.1
2022-08-25T01:42:21.524Z,78
2022-08-25T01:47:54.187Z,78.2
2022-08-25T01:53:33.912Z,78.2
2022-08-25T01:59:09.062Z,78.3
2022-08-25T02:04:45.114Z,78.3
2022-08-25T02:10:20.159Z,78.2
2022-08-25T02:15:57.574Z,78.2
2022-08-25T02:21:41.424Z,78.2
2022-08-25T02:27:17.641Z,78.2
2022-08-25T02:32:52.382Z,78.3
2022-08-25T02:38:28.360Z,78.4
2022-08-25T02:44:25.092Z,78.5
2022-08-25T02:49:57.755Z,78.8
2022-08-25T02:55:34.836Z,78.9
2022-08-25T03:01:09.861Z,79
2022-08-25T03:06:45.501Z,79.1
2022-08-25T03:12:24.316Z,79.2
2022-08-25T03:18:01.633Z,79.4
2022-08-25T03:23:43.531Z,79.5
2022-08-25T03:29:18.530Z,79.6
2022-08-25T03:34:53.436Z,79.6
2022-08-25T03:40:28.739Z,79.8
2022-08-25T03:46:05.475Z,79.8
2022-08-25T03:51:40.803Z,79.9
2022-08-25T03:57:24.106Z,80
2022-08-25T04:02:58.960Z,80.1
2022-08-25T04:08:33.844Z,80.2
2022-08-25T04:14:15.838Z,80.3
2022-08-25T04:19:52.593Z,80.3
2022-08-25T04:25:30.325Z,80.5
2022-08-25T04:31:23.931Z,80.6
2022-08-25T04:36:59.613Z,80.7
2022-08-25T04:42:56.287Z,80.7
2022-08-25T04:48:29.074Z,80.9
2022-08-25T04:54:05.162Z,81
2022-08-25T04:59:39.827Z,81.1
2022-08-25T05:05:14.596Z,81.2
2022-08-25T05:10:49.878Z,81.3
2022-08-25T05:16:26.105Z,81.3
2022-08-25T05:22:02.627Z,81.4
2022-08-25T05:27:37.432Z,81.5
2022-08-25T05:33:12.353Z,81.5
2022-08-25T05:38:47.187Z,81.6
2022-08-25T05:44:43.649Z,81.6
2022-08-25T05:50:17.440Z,81.8
2022-08-25T05:55:52.226Z,81.9
2022-08-25T06:01:27.671Z,84.5
2022-08-25T06:07:03.894Z,85.9
2022-08-25T06:12:38.704Z,86.7
2022-08-25T06:18:13.607Z,88
2022-08-25T06:23:48.480Z,87.9
2022-08-25T06:29:23.322Z,88
2022-08-25T06:34:58.142Z,88.4
2022-08-25T06:40:33.522Z,87.6
2022-08-25T06:46:08.810Z,88
2022-08-25T06:51:43.786Z,87.5
2022-08-25T06:57:18.754Z,86.5
2022-08-25T07:03:02.895Z,86.1
2022-08-25T07:08:38.192Z,86.3
2022-08-25T07:14:13.199Z,85.1
2022-08-25T07:19:48.771Z,84.5
2022-08-25T07:25:40.989Z,83.4
2022-08-25T07:31:16.661Z,81.6
2022-08-25T07:57:05.874Z,82.4
2022-08-25T08:02:41.011Z,82.3
2022-08-25T08:08:19.230Z,82.1
2022-08-25T08:13:54.288Z,81.8
2022-08-25T08:19:29.172Z,81.5
2022-08-25T08:25:10.402Z,81.1
2022-08-25T08:31:03.224Z,80.8
2022-08-25T08:36:47.816Z,80.4
2022-08-25T08:42:47.266Z,80.1
2022-08-25T08:48:23.613Z,80.1
2022-08-25T08:53:59.614Z,79.8
2022-08-25T08:59:34.459Z,79.7
2022-08-25T09:05:10.029Z,79.7
2022-08-25T09:10:47.946Z,79.5
2022-08-25T09:16:34.925Z,78.8
2022-08-25T09:22:36.081Z,78.5
2022-08-25T09:28:11.870Z,78.2
2022-08-25T09:33:46.861Z,77.6
2022-08-25T09:39:23.683Z,77.4
2022-08-25T09:45:23.742Z,77.3
2022-08-25T09:51:00.654Z,77.3
2022-08-25T09:56:36.202Z,77.2
2022-08-25T10:02:16.285Z,76.8
2022-08-25T10:07:58.410Z,76.4
2022-08-25T10:13:35.712Z,76.4
2022-08-25T10:19:12.981Z,76.4
2022-08-25T10:24:48.218Z,76.4
2022-08-25T10:30:23.024Z,76.1
2022-08-25T10:35:57.889Z,76.4
2022-08-25T10:42:00.701Z,76.1
2022-08-25T10:47:38.594Z,76.1
2022-08-25T10:53:17.336Z,75.8
2022-08-25T10:58:52.175Z,75.4
2022-08-25T11:04:29.551Z,75.4
2022-08-25T11:10:11.566Z,75.3
2022-08-25T11:16:17.764Z,75.2
2022-08-25T11:21:56.899Z,75
2022-08-25T11:27:31.908Z,74.2
2022-08-25T11:33:08.449Z,74.2
2022-08-25T11:38:48.222Z,74.3
2022-08-25T11:44:54.900Z,74.3
2022-08-25T11:50:30.705Z,74.3
2022-08-25T11:56:05.537Z,74.1
2022-08-25T12:01:42.151Z,73.7
2022-08-25T12:07:18.631Z,73.3
2022-08-25T12:13:08.085Z,73.1
2022-08-25T12:18:46.648Z,72.8
2022-08-25T12:24:25.924Z,73.1
2022-08-25T12:30:00.810Z,72.7
2022-08-25T12:35:36.249Z,72.4
2022-08-25T12:41:16.638Z,71.9
2022-08-25T12:46:51.717Z,71.2
2022-08-25T12:52:28.493Z,70.7
2022-08-25T12:58:03.443Z,70.4
2022-08-25T13:03:48.028Z,70.2
2022-08-25T13:09:25.240Z,70.3
2022-08-25T13:15:00.034Z,70.1
2022-08-25T13:20:44.573Z,70.2
2022-08-25T13:26:21.265Z,70.5
2022-08-25T13:31:57.101Z,70.7
2022-08-25T13:37:32.918Z,71
2022-08-25T13:43:29.893Z,71.3
2022-08-25T13:49:02.530Z,71.6
2022-08-25T13:54:42.162Z,71.8
2022-08-25T14:00:17.940Z,72
2022-08-25T14:06:08.451Z,71.9
2022-08-25T14:11:43.197Z,71.9
2022-08-25T14:17:40.621Z,71.8
2022-08-25T14:23:19.430Z,71.8
2022-08-25T14:28:55.557Z,71.7
2022-08-25T14:34:31.557Z,71.6
2022-08-25T14:40:07.078Z,71.6
2022-08-25T14:45:46.257Z,71.2
2022-08-25T14:51:27.658Z,71.3
2022-08-25T14:57:09.135Z,71.3
2022-08-25T15:02:47.061Z,71.2
2022-08-25T15:08:33.558Z,71.1
2022-08-25T15:14:11.208Z,70.9
2022-08-25T15:19:47.909Z,71.3
2022-08-25T15:25:24.909Z,71.1
2022-08-25T15:30:59.971Z,70.7
2022-08-25T15:36:38.923Z,70.7
2022-08-25T15:42:42.888Z,70.6
2022-08-25T15:48:19.347Z,70.9
2022-08-25T15:53:55.926Z,71
2022-08-25T15:59:34.067Z,71.3
2022-08-25T16:05:09.234Z,71.5
2022-08-25T16:10:51.760Z,71.6
2022-08-25T16:16:28.236Z,71.7
2022-08-25T16:22:11.146Z,71.6
2022-08-25T16:27:46.382Z,71.6
2022-08-25T16:33:22.793Z,71.8
2022-08-25T16:39:00.771Z,71.8
2022-08-25T16:44:58.278Z,72
2022-08-25T16:50:35.065Z,72.1
2022-08-25T16:56:13.253Z,72
2022-08-25T17:01:48.480Z,72
2022-08-25T17:07:26.889Z,72
2022-08-25T17:13:02.082Z,71.9
2022-08-25T17:18:38.133Z,71.9
2022-08-25T17:24:14.130Z,72
2022-08-25T17:29:49.017Z,72.2
2022-08-25T17:35:25.891Z,72.3
2022-08-25T17:41:00.543Z,72.4
2022-08-25T17:46:35.944Z,72.5
2022-08-25T17:52:13.200Z,72.7
2022-08-25T17:57:48.259Z,72.8
2022-08-25T18:03:23.827Z,73
2022-08-25T18:09:01.752Z,73.2
2022-08-25T18:14:40.393Z,73.7
2022-08-25T18:20:24.875Z,75.7
2022-08-25T18:26:03.200Z,76
2022-08-25T18:31:42.732Z,76.1
2022-08-25T18:37:23.965Z,76.9
2022-08-25T18:43:21.450Z,76.5
2022-08-25T18:48:55.282Z,76.8
2022-08-25T18:54:36.431Z,77.2
2022-08-25T19:00:12.426Z,77.5
2022-08-25T19:05:57.837Z,78.4
2022-08-25T19:11:33.547Z,78.4
2022-08-25T19:17:08.439Z,78.9
2022-08-25T19:22:44.110Z,78.8
2022-08-25T19:28:23.128Z,79.1
2022-08-25T19:33:58.395Z,79.2
2022-08-25T19:39:33.246Z,79.7
2022-08-25T19:45:14.089Z,79.6
2022-08-25T19:50:58.305Z,79.8
2022-08-25T19:56:55.552Z,80.8
2022-08-25T20:02:30.875Z,80.9
2022-08-25T20:08:08.067Z,81.7
2022-08-25T20:13:44.236Z,82.3
2022-08-25T20:19:25.148Z,82.7
2022-08-25T20:25:00.915Z,82.9
2022-08-25T20:30:35.929Z,83.3
2022-08-25T20:36:11.789Z,84.2
2022-08-25T20:41:48.948Z,84.7
2022-08-25T20:47:24.746Z,84.6
2022-08-25T20:53:01.423Z,85.4
2022-08-25T20:58:37.210Z,85.2
2022-08-25T21:04:15.162Z,85.4
2022-08-25T21:09:53.053Z,85.8
2022-08-25T21:15:28.216Z,86
2022-08-25T21:21:07.058Z,86.2
2022-08-25T21:26:49.280Z,86.4
2022-08-25T21:32:24.708Z,86.1
2022-08-25T21:38:00.222Z,86.3
2022-08-25T21:43:48.284Z,86.1
2022-08-25T21:49:24.989Z,85.1
2022-08-25T21:55:01.371Z,84
2022-08-25T22:00:36.161Z,83.4
2022-08-25T22:06:12.629Z,83.2
2022-08-25T22:11:51.332Z,83
2022-08-25T22:17:29.315Z,82.8
2022-08-25T22:23:06.199Z,82.8
2022-08-25T22:28:46.763Z,82.7
2022-08-25T22:34:32.891Z,82.6
2022-08-25T22:40:09.419Z,82.5
2022-08-25T22:45:46.421Z,82.5
2022-08-25T22:51:27.675Z,82.5
2022-08-25T22:57:07.147Z,82.5
2022-08-25T23:02:42.321Z,82.5
2022-08-25T23:08:40.948Z,82.5
2022-08-25T23:14:16.215Z,82.4
2022-08-25T23:19:51.223Z,82.5
2022-08-25T23:25:56.712Z,82.5
2022-08-25T23:31:35.897Z,82.5
2022-08-25T23:37:11.524Z,82.6
2022-08-25T23:43:08.626Z,82.5
2022-08-25T23:48:42.497Z,82.6
2022-08-25T23:54:31.847Z,82.6
